ITY6767 LIRF-LMML
Flight info
| Callsign | ITY6767 |
|---|---|
| Flight time | 1h 0m |
| Altitude | 35000 |
| Route | KONUT8A KONUT DCT ROTUN DCT LURON DCT MARON DCT EKOLA L12 GZO DCT |
| Aircraft | A320/M-SDE3FGHIRWY/LB1 |
Departure
| Time | 2026-05-04 15:01 |
|---|---|
| Airport | Rome–Fiumicino Leonardo da Vinci International Airport (LIRF) |
Arrival
| Time | 2026-05-04 16:01 |
|---|---|
| Airport | Malta International Airport (LMML) |
| Time | Latitude | Longitude | Altitude | Speed | Heading |
|---|---|---|---|---|---|
| 2026-05-04 14:28 | 41.79702 | 12.25835 | 16 ft | 0 kts | 114° |
| 2026-05-04 14:29 | 41.79702 | 12.25834 | 16 ft | 0 kts | 114° |
| 2026-05-04 14:40 | 41.79703 | 12.25834 | 16 ft | 0 kts | 114° |
| 2026-05-04 14:52 | 41.79710 | 12.25810 | 20 ft | 6 kts | 103° |
| 2026-05-04 14:52 | 41.79712 | 12.25783 | 20 ft | 25 kts | 86° |
| 2026-05-04 14:52 | 41.79712 | 12.25774 | 20 ft | 2 kts | 33° |
| 2026-05-04 14:52 | 41.79669 | 12.25749 | 16 ft | 8 kts | 14° |
| 2026-05-04 14:53 | 41.79626 | 12.25727 | 19 ft | 0 kts | 23° |
| 2026-05-04 14:53 | 41.79627 | 12.25727 | 19 ft | 0 kts | 23° |
| 2026-05-04 14:54 | 41.79626 | 12.25727 | 19 ft | 0 kts | 23° |
| 2026-05-04 14:55 | 41.79638 | 12.25731 | 17 ft | 7 kts | 10° |
| 2026-05-04 14:55 | 41.79681 | 12.25709 | 16 ft | 7 kts | 347° |
| 2026-05-04 14:55 | 41.79725 | 12.25717 | 16 ft | 6 kts | 17° |
| 2026-05-04 14:55 | 41.79768 | 12.25737 | 17 ft | 7 kts | 21° |
| 2026-05-04 14:56 | 41.79809 | 12.25766 | 18 ft | 7 kts | 31° |
| 2026-05-04 14:56 | 41.79873 | 12.25825 | 18 ft | 15 kts | 33° |
| 2026-05-04 14:56 | 41.79962 | 12.25878 | 18 ft | 13 kts | 23° |
| 2026-05-04 14:56 | 41.80047 | 12.25929 | 18 ft | 14 kts | 25° |
| 2026-05-04 14:57 | 41.80135 | 12.25986 | 18 ft | 14 kts | 26° |
| 2026-05-04 14:57 | 41.80229 | 12.26045 | 15 ft | 15 kts | 25° |
| 2026-05-04 14:57 | 41.80328 | 12.26106 | 15 ft | 16 kts | 25° |
| 2026-05-04 14:57 | 41.80428 | 12.26166 | 15 ft | 16 kts | 24° |
| 2026-05-04 14:58 | 41.80524 | 12.26228 | 15 ft | 15 kts | 54° |
| 2026-05-04 14:58 | 41.80557 | 12.26346 | 17 ft | 12 kts | 70° |
| 2026-05-04 14:58 | 41.80586 | 12.26451 | 17 ft | 14 kts | 70° |
| 2026-05-04 14:58 | 41.80638 | 12.26644 | 16 ft | 28 kts | 70° |
| 2026-05-04 14:59 | 41.80709 | 12.26905 | 12 ft | 31 kts | 71° |
| 2026-05-04 14:59 | 41.80759 | 12.27031 | 11 ft | 13 kts | 39° |
| 2026-05-04 14:59 | 41.80927 | 12.26982 | 11 ft | 12 kts | 339° |
| 2026-05-04 15:00 | 41.80962 | 12.26901 | 12 ft | 10 kts | 246° |
| 2026-05-04 15:00 | 41.80925 | 12.26812 | 12 ft | 13 kts | 247° |
| 2026-05-04 15:00 | 41.80820 | 12.26445 | 17 ft | 89 kts | 249° |
| 2026-05-04 15:01 | 41.80070 | 12.23714 | 722 ft | 185 kts | 248° |
| 2026-05-04 15:01 | 41.79635 | 12.22049 | 1740 ft | 194 kts | 248° |
| 2026-05-04 15:01 | 41.79254 | 12.20265 | 2681 ft | 204 kts | 259° |
| 2026-05-04 15:01 | 41.79156 | 12.18327 | 3577 ft | 213 kts | 264° |
| 2026-05-04 15:02 | 41.79051 | 12.16334 | 3929 ft | 215 kts | 255° |
| 2026-05-04 15:02 | 41.78454 | 12.14455 | 4670 ft | 224 kts | 231° |
| 2026-05-04 15:02 | 41.77402 | 12.12984 | 6023 ft | 213 kts | 220° |
| 2026-05-04 15:02 | 41.76329 | 12.11640 | 7220 ft | 211 kts | 221° |
| 2026-05-04 15:03 | 41.75247 | 12.10288 | 8203 ft | 214 kts | 221° |
| 2026-05-04 15:03 | 41.74151 | 12.08919 | 9199 ft | 217 kts | 222° |
| 2026-05-04 15:03 | 41.73034 | 12.07533 | 10172 ft | 223 kts | 221° |
| 2026-05-04 15:03 | 41.71608 | 12.06499 | 10675 ft | 250 kts | 193° |
| 2026-05-04 15:04 | 41.69787 | 12.06630 | 11167 ft | 280 kts | 168° |
| 2026-05-04 15:04 | 41.67825 | 12.07336 | 11646 ft | 305 kts | 166° |
| 2026-05-04 15:04 | 41.65707 | 12.08171 | 12101 ft | 330 kts | 166° |
| 2026-05-04 15:04 | 41.63488 | 12.09070 | 12787 ft | 342 kts | 166° |
| 2026-05-04 15:05 | 41.61180 | 12.10004 | 13661 ft | 350 kts | 166° |
| 2026-05-04 15:05 | 41.58823 | 12.10941 | 14466 ft | 357 kts | 166° |
| 2026-05-04 15:05 | 41.56417 | 12.11880 | 15283 ft | 362 kts | 167° |
| 2026-05-04 15:05 | 41.53983 | 12.12815 | 16116 ft | 367 kts | 167° |
| 2026-05-04 15:06 | 41.51514 | 12.13754 | 16927 ft | 371 kts | 167° |
| 2026-05-04 15:06 | 41.49010 | 12.14705 | 17755 ft | 376 kts | 168° |
| 2026-05-04 15:06 | 41.46482 | 12.15667 | 18543 ft | 381 kts | 168° |
| 2026-05-04 15:07 | 41.41324 | 12.17637 | 19923 ft | 390 kts | 167° |
| 2026-05-04 15:07 | 41.38698 | 12.18643 | 20611 ft | 395 kts | 167° |
| 2026-05-04 15:07 | 41.36040 | 12.19660 | 21305 ft | 400 kts | 167° |
| 2026-05-04 15:07 | 41.33346 | 12.20690 | 21987 ft | 405 kts | 167° |
| 2026-05-04 15:08 | 41.30618 | 12.21732 | 22678 ft | 410 kts | 166° |
| 2026-05-04 15:08 | 41.27857 | 12.22788 | 23351 ft | 415 kts | 166° |
| 2026-05-04 15:08 | 41.25071 | 12.23853 | 23940 ft | 420 kts | 166° |
| 2026-05-04 15:08 | 41.22249 | 12.24929 | 24466 ft | 424 kts | 167° |
| 2026-05-04 15:09 | 41.19430 | 12.25997 | 24960 ft | 429 kts | 167° |
| 2026-05-04 15:09 | 41.16544 | 12.27090 | 25462 ft | 434 kts | 168° |
| 2026-05-04 15:09 | 41.13628 | 12.28198 | 25946 ft | 438 kts | 168° |
| 2026-05-04 15:10 | 41.07669 | 12.30460 | 26887 ft | 447 kts | 169° |
| 2026-05-04 15:10 | 41.04702 | 12.31581 | 27348 ft | 451 kts | 169° |
| 2026-05-04 15:10 | 40.98607 | 12.33878 | 28242 ft | 460 kts | 169° |
| 2026-05-04 15:11 | 40.95515 | 12.35043 | 28669 ft | 464 kts | 170° |
| 2026-05-04 15:11 | 40.92397 | 12.36218 | 29109 ft | 468 kts | 170° |
| 2026-05-04 15:11 | 40.89253 | 12.37402 | 29531 ft | 472 kts | 170° |
| 2026-05-04 15:11 | 40.86082 | 12.38593 | 29940 ft | 476 kts | 171° |
| 2026-05-04 15:12 | 40.82883 | 12.39797 | 30314 ft | 479 kts | 171° |
| 2026-05-04 15:12 | 40.79669 | 12.41007 | 30655 ft | 482 kts | 171° |
| 2026-05-04 15:12 | 40.76431 | 12.42224 | 31004 ft | 485 kts | 171° |
| 2026-05-04 15:12 | 40.73177 | 12.43445 | 31371 ft | 486 kts | 171° |
| 2026-05-04 15:13 | 40.69929 | 12.44663 | 31872 ft | 484 kts | 171° |
| 2026-05-04 15:13 | 40.66691 | 12.45878 | 32375 ft | 482 kts | 171° |
| 2026-05-04 15:13 | 40.63471 | 12.47084 | 32885 ft | 481 kts | 171° |
| 2026-05-04 15:13 | 40.60301 | 12.48265 | 33393 ft | 479 kts | 171° |
| 2026-05-04 15:14 | 40.57104 | 12.49450 | 33909 ft | 477 kts | 172° |
| 2026-05-04 15:14 | 40.53911 | 12.50632 | 34389 ft | 475 kts | 172° |
| 2026-05-04 15:14 | 40.50732 | 12.51813 | 34822 ft | 475 kts | 171° |
| 2026-05-04 15:14 | 40.47551 | 12.52994 | 35075 ft | 475 kts | 171° |
| 2026-05-04 15:15 | 40.44378 | 12.54171 | 35121 ft | 472 kts | 171° |
| 2026-05-04 15:15 | 40.38094 | 12.56502 | 35126 ft | 468 kts | 171° |
| 2026-05-04 15:16 | 40.28700 | 12.59972 | 35131 ft | 467 kts | 171° |
| 2026-05-04 15:17 | 40.19315 | 12.63427 | 35132 ft | 467 kts | 171° |
| 2026-05-04 15:17 | 40.09929 | 12.66881 | 35122 ft | 467 kts | 171° |
| 2026-05-04 15:18 | 40.03676 | 12.69178 | 35122 ft | 466 kts | 171° |
| 2026-05-04 15:19 | 39.94348 | 12.72621 | 35127 ft | 467 kts | 170° |
| 2026-05-04 15:19 | 39.84994 | 12.76191 | 35125 ft | 467 kts | 170° |
| 2026-05-04 15:20 | 39.78758 | 12.78571 | 35122 ft | 467 kts | 170° |
| 2026-05-04 15:20 | 39.72518 | 12.80929 | 35121 ft | 466 kts | 170° |
| 2026-05-04 15:21 | 39.66324 | 12.83267 | 35117 ft | 466 kts | 170° |
| 2026-05-04 15:22 | 39.56991 | 12.86774 | 35121 ft | 465 kts | 169° |
| 2026-05-04 15:22 | 39.47666 | 12.90277 | 35115 ft | 465 kts | 169° |
| 2026-05-04 15:23 | 39.41459 | 12.92607 | 35118 ft | 465 kts | 169° |
| 2026-05-04 15:23 | 39.36297 | 12.94542 | 35117 ft | 465 kts | 169° |
| 2026-05-04 15:24 | 39.23868 | 12.99172 | 35110 ft | 465 kts | 169° |
| 2026-05-04 15:25 | 39.17641 | 13.01478 | 35105 ft | 465 kts | 169° |
| 2026-05-04 15:26 | 39.08307 | 13.04944 | 35103 ft | 465 kts | 168° |
| 2026-05-04 15:26 | 38.99004 | 13.08396 | 35095 ft | 466 kts | 168° |
| 2026-05-04 15:27 | 38.89653 | 13.11839 | 35098 ft | 466 kts | 168° |
| 2026-05-04 15:28 | 38.80289 | 13.15295 | 35098 ft | 467 kts | 168° |
| 2026-05-04 15:29 | 38.70914 | 13.18745 | 35100 ft | 467 kts | 168° |
| 2026-05-04 15:30 | 38.49070 | 13.26708 | 35100 ft | 467 kts | 168° |
| 2026-05-04 15:31 | 38.39689 | 13.30137 | 35098 ft | 469 kts | 166° |
| 2026-05-04 15:32 | 38.24710 | 13.38767 | 35098 ft | 473 kts | 159° |
| 2026-05-04 15:34 | 38.09744 | 13.47559 | 35104 ft | 475 kts | 159° |
| 2026-05-04 15:34 | 38.00743 | 13.52822 | 35109 ft | 475 kts | 159° |
| 2026-05-04 15:35 | 37.91722 | 13.58080 | 35109 ft | 475 kts | 159° |
| 2026-05-04 15:36 | 37.82743 | 13.63296 | 35112 ft | 476 kts | 159° |
| 2026-05-04 15:36 | 37.76727 | 13.66795 | 35113 ft | 476 kts | 159° |
| 2026-05-04 15:37 | 37.70703 | 13.70285 | 35114 ft | 476 kts | 160° |
| 2026-05-04 15:37 | 37.64683 | 13.73763 | 35118 ft | 476 kts | 160° |
| 2026-05-04 15:38 | 37.58659 | 13.77248 | 35121 ft | 476 kts | 160° |
| 2026-05-04 15:38 | 37.52632 | 13.80725 | 35119 ft | 476 kts | 160° |
| 2026-05-04 15:39 | 37.46601 | 13.84197 | 35124 ft | 477 kts | 160° |
| 2026-05-04 15:39 | 37.40585 | 13.87645 | 34730 ft | 471 kts | 160° |
| 2026-05-04 15:40 | 37.37611 | 13.89350 | 34098 ft | 469 kts | 160° |
| 2026-05-04 15:40 | 37.34647 | 13.91047 | 33437 ft | 467 kts | 160° |
| 2026-05-04 15:40 | 37.31701 | 13.92733 | 32823 ft | 463 kts | 160° |
| 2026-05-04 15:40 | 37.28777 | 13.94404 | 32205 ft | 461 kts | 159° |
| 2026-05-04 15:41 | 37.25867 | 13.96069 | 31610 ft | 458 kts | 159° |
| 2026-05-04 15:41 | 37.23017 | 13.97699 | 31031 ft | 456 kts | 159° |
| 2026-05-04 15:41 | 37.20133 | 13.99344 | 30448 ft | 453 kts | 159° |
| 2026-05-04 15:41 | 37.17269 | 14.00976 | 29831 ft | 450 kts | 158° |
| 2026-05-04 15:42 | 37.14433 | 14.02595 | 29284 ft | 446 kts | 158° |
| 2026-05-04 15:42 | 37.11619 | 14.04199 | 28743 ft | 441 kts | 159° |
| 2026-05-04 15:42 | 37.08841 | 14.05779 | 28213 ft | 436 kts | 159° |
| 2026-05-04 15:42 | 37.06091 | 14.07343 | 27685 ft | 432 kts | 159° |
| 2026-05-04 15:43 | 37.03365 | 14.08893 | 27151 ft | 429 kts | 159° |
| 2026-05-04 15:43 | 37.00653 | 14.10431 | 26626 ft | 426 kts | 159° |
| 2026-05-04 15:43 | 36.97963 | 14.11953 | 26077 ft | 423 kts | 159° |
| 2026-05-04 15:43 | 36.95277 | 14.13472 | 25351 ft | 426 kts | 159° |
| 2026-05-04 15:44 | 36.92615 | 14.14978 | 24769 ft | 425 kts | 159° |
| 2026-05-04 15:44 | 36.89940 | 14.16492 | 24279 ft | 420 kts | 159° |
| 2026-05-04 15:44 | 36.87282 | 14.17992 | 23700 ft | 413 kts | 159° |
| 2026-05-04 15:44 | 36.84698 | 14.19452 | 22948 ft | 400 kts | 159° |
| 2026-05-04 15:45 | 36.82219 | 14.20858 | 22412 ft | 383 kts | 159° |
| 2026-05-04 15:45 | 36.79837 | 14.22207 | 21890 ft | 369 kts | 159° |
| 2026-05-04 15:45 | 36.77538 | 14.23505 | 21397 ft | 356 kts | 159° |
| 2026-05-04 15:45 | 36.75315 | 14.24757 | 20906 ft | 344 kts | 159° |
| 2026-05-04 15:46 | 36.73143 | 14.25976 | 20439 ft | 342 kts | 158° |
| 2026-05-04 15:46 | 36.70981 | 14.27188 | 19976 ft | 339 kts | 158° |
| 2026-05-04 15:46 | 36.68831 | 14.28393 | 19514 ft | 337 kts | 158° |
| 2026-05-04 15:46 | 36.66695 | 14.29589 | 19063 ft | 338 kts | 158° |
| 2026-05-04 15:47 | 36.64542 | 14.30795 | 18599 ft | 340 kts | 158° |
| 2026-05-04 15:47 | 36.62378 | 14.32008 | 18097 ft | 342 kts | 158° |
| 2026-05-04 15:47 | 36.60201 | 14.33227 | 17633 ft | 342 kts | 158° |
| 2026-05-04 15:47 | 36.58054 | 14.34425 | 17146 ft | 345 kts | 158° |
| 2026-05-04 15:48 | 36.55857 | 14.35655 | 16590 ft | 348 kts | 158° |
| 2026-05-04 15:48 | 36.53648 | 14.36896 | 16039 ft | 350 kts | 158° |
| 2026-05-04 15:48 | 36.49181 | 14.39396 | 14973 ft | 353 kts | 158° |
| 2026-05-04 15:49 | 36.46941 | 14.40646 | 14438 ft | 353 kts | 158° |
| 2026-05-04 15:49 | 36.44696 | 14.41900 | 13936 ft | 354 kts | 158° |
| 2026-05-04 15:49 | 36.42449 | 14.43156 | 13383 ft | 353 kts | 157° |
| 2026-05-04 15:49 | 36.40215 | 14.44401 | 12863 ft | 350 kts | 157° |
| 2026-05-04 15:50 | 36.38006 | 14.45630 | 12358 ft | 347 kts | 157° |
| 2026-05-04 15:50 | 36.35840 | 14.46834 | 11866 ft | 343 kts | 157° |
| 2026-05-04 15:50 | 36.33671 | 14.48039 | 11377 ft | 340 kts | 157° |
| 2026-05-04 15:50 | 36.31522 | 14.49234 | 10887 ft | 336 kts | 157° |
| 2026-05-04 15:51 | 36.29397 | 14.50413 | 10421 ft | 333 kts | 157° |
| 2026-05-04 15:51 | 36.27293 | 14.51579 | 9937 ft | 329 kts | 156° |
| 2026-05-04 15:51 | 36.25217 | 14.52734 | 9352 ft | 323 kts | 156° |
| 2026-05-04 15:51 | 36.23212 | 14.53851 | 8715 ft | 309 kts | 156° |
| 2026-05-04 15:52 | 36.21286 | 14.54920 | 8096 ft | 298 kts | 156° |
| 2026-05-04 15:52 | 36.19425 | 14.55950 | 7487 ft | 290 kts | 156° |
| 2026-05-04 15:52 | 36.17599 | 14.56959 | 6886 ft | 286 kts | 156° |
| 2026-05-04 15:52 | 36.15790 | 14.57961 | 6282 ft | 283 kts | 156° |
| 2026-05-04 15:53 | 36.13989 | 14.58958 | 5655 ft | 285 kts | 156° |
| 2026-05-04 15:53 | 36.12177 | 14.59962 | 5038 ft | 287 kts | 156° |
| 2026-05-04 15:53 | 36.10352 | 14.60978 | 4463 ft | 286 kts | 154° |
| 2026-05-04 15:53 | 36.08683 | 14.62286 | 3982 ft | 282 kts | 145° |
| 2026-05-04 15:54 | 36.07119 | 14.63657 | 3735 ft | 270 kts | 145° |
| 2026-05-04 15:54 | 36.05611 | 14.64976 | 3379 ft | 262 kts | 145° |
| 2026-05-04 15:54 | 36.04139 | 14.66264 | 3034 ft | 255 kts | 146° |
| 2026-05-04 15:54 | 36.02740 | 14.67486 | 2981 ft | 237 kts | 146° |
| 2026-05-04 15:55 | 36.01447 | 14.68615 | 2983 ft | 219 kts | 146° |
| 2026-05-04 15:55 | 36.00171 | 14.69456 | 2973 ft | 200 kts | 168° |
| 2026-05-04 15:55 | 35.98848 | 14.69397 | 2984 ft | 188 kts | 200° |
| 2026-05-04 15:55 | 35.97780 | 14.68524 | 2977 ft | 185 kts | 229° |
| 2026-05-04 15:56 | 35.97036 | 14.67251 | 2991 ft | 185 kts | 234° |
| 2026-05-04 15:56 | 35.96292 | 14.65958 | 2988 ft | 185 kts | 234° |
| 2026-05-04 15:56 | 35.95546 | 14.64666 | 2992 ft | 185 kts | 233° |
| 2026-05-04 15:56 | 35.94807 | 14.63387 | 2982 ft | 179 kts | 233° |
| 2026-05-04 15:57 | 35.94092 | 14.62151 | 3021 ft | 176 kts | 233° |
| 2026-05-04 15:57 | 35.93398 | 14.60951 | 2830 ft | 169 kts | 233° |
| 2026-05-04 15:57 | 35.92724 | 14.59785 | 2594 ft | 162 kts | 233° |
| 2026-05-04 15:57 | 35.92093 | 14.58687 | 2368 ft | 151 kts | 232° |
| 2026-05-04 15:58 | 35.91518 | 14.57687 | 2182 ft | 135 kts | 231° |
| 2026-05-04 15:58 | 35.90996 | 14.56783 | 2000 ft | 125 kts | 230° |
| 2026-05-04 15:58 | 35.90502 | 14.55927 | 1827 ft | 120 kts | 230° |
| 2026-05-04 15:58 | 35.90017 | 14.55092 | 1665 ft | 120 kts | 230° |
| 2026-05-04 15:59 | 35.89530 | 14.54255 | 1483 ft | 120 kts | 229° |
| 2026-05-04 15:59 | 35.89044 | 14.53420 | 1331 ft | 119 kts | 230° |
| 2026-05-04 15:59 | 35.88558 | 14.52585 | 1157 ft | 120 kts | 230° |
| 2026-05-04 15:59 | 35.88071 | 14.51746 | 993 ft | 120 kts | 230° |
| 2026-05-04 16:00 | 35.87588 | 14.50914 | 815 ft | 119 kts | 230° |
| 2026-05-04 16:00 | 35.87102 | 14.50079 | 662 ft | 121 kts | 229° |
| 2026-05-04 16:00 | 35.86621 | 14.49220 | 535 ft | 123 kts | 227° |
| 2026-05-04 16:00 | 35.86126 | 14.48369 | 356 ft | 122 kts | 229° |
| 2026-05-04 16:01 | 35.85653 | 14.47579 | 272 ft | 96 kts | 235° |
| 2026-05-04 16:01 | 35.85362 | 14.47084 | 284 ft | 47 kts | 234° |
| 2026-05-04 16:01 | 35.85225 | 14.46841 | 298 ft | 31 kts | 233° |
| 2026-05-04 16:01 | 35.85105 | 14.46636 | 310 ft | 28 kts | 236° |
| 2026-05-04 16:02 | 35.84988 | 14.46435 | 309 ft | 29 kts | 232° |
| 2026-05-04 16:02 | 35.84865 | 14.46229 | 309 ft | 31 kts | 234° |
| 2026-05-04 16:02 | 35.84802 | 14.45971 | 308 ft | 12 kts | 326° |
| 2026-05-04 16:03 | 35.84881 | 14.45966 | 308 ft | 12 kts | 19° |
| 2026-05-04 16:03 | 35.84935 | 14.46036 | 308 ft | 11 kts | 56° |
| 2026-05-04 16:03 | 35.84980 | 14.46115 | 310 ft | 11 kts | 54° |
| 2026-05-04 16:03 | 35.85046 | 14.46228 | 308 ft | 25 kts | 54° |
| 2026-05-04 16:04 | 35.85168 | 14.46434 | 310 ft | 32 kts | 54° |
| 2026-05-04 16:04 | 35.85418 | 14.46896 | 293 ft | 22 kts | 72° |
| 2026-05-04 16:04 | 35.85516 | 14.47082 | 279 ft | 30 kts | 52° |
| 2026-05-04 16:05 | 35.85633 | 14.47270 | 272 ft | 21 kts | 38° |
| 2026-05-04 16:05 | 35.85692 | 14.47310 | 273 ft | 6 kts | 55° |
| 2026-05-04 16:05 | 35.85800 | 14.47490 | 272 ft | 21 kts | 52° |
| 2026-05-04 16:06 | 35.85849 | 14.47596 | 272 ft | 13 kts | 74° |
| 2026-05-04 16:06 | 35.85653 | 14.47869 | 272 ft | 16 kts | 120° |
| 2026-05-04 16:07 | 35.85658 | 14.48065 | 272 ft | 20 kts | 90° |
| 2026-05-04 16:07 | 35.85498 | 14.48334 | 272 ft | 17 kts | 133° |
| 2026-05-04 16:08 | 35.85406 | 14.48449 | 272 ft | 20 kts | 136° |
| 2026-05-04 16:08 | 35.85411 | 14.48516 | 272 ft | 0 kts | 358° |